sensor_id;sensor_type;location;lat;lon;timestamp;P1;durP1;ratioP1;P2;durP2;ratioP2
28766;SDS011;15921;52.034;20.650;2022-10-28T00:00:14;54.92;;;33.20;;
28766;SDS011;15921;52.034;20.650;2022-10-28T00:02:41;66.75;;;33.85;;
28766;SDS011;15921;52.034;20.650;2022-10-28T00:05:07;55.00;;;32.10;;
28766;SDS011;15921;52.034;20.650;2022-10-28T00:07:33;61.38;;;33.63;;
28766;SDS011;15921;52.034;20.650;2022-10-28T00:09:58;61.70;;;34.13;;
28766;SDS011;15921;52.034;20.650;2022-10-28T00:12:24;54.00;;;33.42;;
28766;SDS011;15921;52.034;20.650;2022-10-28T00:14:50;57.45;;;32.28;;
28766;SDS011;15921;52.034;20.650;2022-10-28T00:17:16;56.03;;;30.65;;
28766;SDS011;15921;52.034;20.650;2022-10-28T00:19:41;64.60;;;33.17;;
28766;SDS011;15921;52.034;20.650;2022-10-28T00:22:07;59.35;;;30.98;;
28766;SDS011;15921;52.034;20.650;2022-10-28T00:24:33;61.65;;;31.27;;
28766;SDS011;15921;52.034;20.650;2022-10-28T00:26:58;65.03;;;33.25;;
28766;SDS011;15921;52.034;20.650;2022-10-28T00:29:24;44.95;;;25.63;;
28766;SDS011;15921;52.034;20.650;2022-10-28T00:31:50;47.92;;;29.27;;
28766;SDS011;15921;52.034;20.650;2022-10-28T00:34:17;50.80;;;30.13;;
28766;SDS011;15921;52.034;20.650;2022-10-28T00:36:45;46.03;;;25.52;;
28766;SDS011;15921;52.034;20.650;2022-10-28T00:39:13;48.05;;;26.75;;
28766;SDS011;15921;52.034;20.650;2022-10-28T00:41:45;46.80;;;26.58;;
28766;SDS011;15921;52.034;20.650;2022-10-28T00:47:03;57.00;;;30.25;;
28766;SDS011;15921;52.034;20.650;2022-10-28T00:49:37;57.30;;;25.00;;
28766;SDS011;15921;52.034;20.650;2022-10-28T00:52:03;50.17;;;27.17;;
28766;SDS011;15921;52.034;20.650;2022-10-28T00:54:34;62.72;;;32.90;;
28766;SDS011;15921;52.034;20.650;2022-10-28T00:57:02;75.28;;;37.47;;
28766;SDS011;15921;52.034;20.650;2022-10-28T00:59:33;62.88;;;32.95;;
28766;SDS011;15921;52.034;20.650;2022-10-28T01:02:01;65.40;;;33.33;;
28766;SDS011;15921;52.034;20.650;2022-10-28T01:04:29;52.08;;;28.00;;
28766;SDS011;15921;52.034;20.650;2022-10-28T01:06:55;80.35;;;38.63;;
28766;SDS011;15921;52.034;20.650;2022-10-28T01:09:22;72.97;;;35.78;;
28766;SDS011;15921;52.034;20.650;2022-10-28T01:11:56;59.47;;;32.28;;
28766;SDS011;15921;52.034;20.650;2022-10-28T01:22:29;46.83;;;25.35;;
28766;SDS011;15921;52.034;20.650;2022-10-28T01:30:27;75.03;;;37.20;;
28766;SDS011;15921;52.034;20.650;2022-10-28T01:33:10;67.95;;;34.92;;
28766;SDS011;15921;52.034;20.650;2022-10-28T01:35:49;71.60;;;35.15;;
28766;SDS011;15921;52.034;20.650;2022-10-28T01:40:55;68.03;;;35.20;;
28766;SDS011;15921;52.034;20.650;2022-10-28T01:43:44;60.20;;;32.72;;
28766;SDS011;15921;52.034;20.650;2022-10-28T01:46:15;57.22;;;31.30;;
28766;SDS011;15921;52.034;20.650;2022-10-28T01:49:04;57.65;;;32.08;;
28766;SDS011;15921;52.034;20.650;2022-10-28T01:51:53;59.67;;;31.85;;
28766;SDS011;15921;52.034;20.650;2022-10-28T01:54:23;59.45;;;33.55;;
28766;SDS011;15921;52.034;20.650;2022-10-28T01:56:51;61.50;;;35.30;;
28766;SDS011;15921;52.034;20.650;2022-10-28T01:59:20;66.65;;;34.15;;
28766;SDS011;15921;52.034;20.650;2022-10-28T02:01:48;61.50;;;31.75;;
28766;SDS011;15921;52.034;20.650;2022-10-28T02:04:14;55.55;;;30.98;;
28766;SDS011;15921;52.034;20.650;2022-10-28T02:06:41;59.03;;;33.80;;
28766;SDS011;15921;52.034;20.650;2022-10-28T02:17:16;56.20;;;32.30;;
28766;SDS011;15921;52.034;20.650;2022-10-28T02:27:33;46.33;;;30.48;;
28766;SDS011;15921;52.034;20.650;2022-10-28T02:30:07;67.20;;;31.35;;
28766;SDS011;15921;52.034;20.650;2022-10-28T02:35:08;49.78;;;30.10;;
28766;SDS011;15921;52.034;20.650;2022-10-28T02:37:39;59.08;;;32.83;;
28766;SDS011;15921;52.034;20.650;2022-10-28T02:40:08;62.33;;;32.08;;
28766;SDS011;15921;52.034;20.650;2022-10-28T02:42:51;53.10;;;30.90;;
28766;SDS011;15921;52.034;20.650;2022-10-28T02:45:24;55.58;;;30.20;;
28766;SDS011;15921;52.034;20.650;2022-10-28T02:48:06;55.63;;;32.42;;
28766;SDS011;15921;52.034;20.650;2022-10-28T02:51:16;60.95;;;34.75;;
28766;SDS011;15921;52.034;20.650;2022-10-28T02:54:06;55.95;;;32.47;;
28766;SDS011;15921;52.034;20.650;2022-10-28T02:56:37;58.20;;;33.30;;
28766;SDS011;15921;52.034;20.650;2022-10-28T02:59:10;62.08;;;32.72;;
28766;SDS011;15921;52.034;20.650;2022-10-28T03:01:37;59.38;;;33.05;;
28766;SDS011;15921;52.034;20.650;2022-10-28T03:04:03;69.63;;;34.42;;
28766;SDS011;15921;52.034;20.650;2022-10-28T03:06:29;64.30;;;33.08;;
28766;SDS011;15921;52.034;20.650;2022-10-28T03:08:55;68.97;;;35.38;;
28766;SDS011;15921;52.034;20.650;2022-10-28T03:11:21;72.53;;;38.63;;
28766;SDS011;15921;52.034;20.650;2022-10-28T03:13:46;67.22;;;37.28;;
28766;SDS011;15921;52.034;20.650;2022-10-28T03:16:12;70.50;;;37.03;;
28766;SDS011;15921;52.034;20.650;2022-10-28T03:18:38;58.83;;;31.85;;
28766;SDS011;15921;52.034;20.650;2022-10-28T03:21:04;61.25;;;32.08;;
28766;SDS011;15921;52.034;20.650;2022-10-28T03:23:29;56.72;;;29.20;;
28766;SDS011;15921;52.034;20.650;2022-10-28T03:25:55;49.75;;;27.35;;
28766;SDS011;15921;52.034;20.650;2022-10-28T03:28:21;49.13;;;28.38;;
28766;SDS011;15921;52.034;20.650;2022-10-28T03:30:46;53.35;;;29.65;;
28766;SDS011;15921;52.034;20.650;2022-10-28T03:33:12;48.40;;;28.40;;
28766;SDS011;15921;52.034;20.650;2022-10-28T03:35:38;53.58;;;29.02;;
28766;SDS011;15921;52.034;20.650;2022-10-28T03:38:04;50.35;;;28.40;;
28766;SDS011;15921;52.034;20.650;2022-10-28T03:40:29;52.28;;;29.73;;
28766;SDS011;15921;52.034;20.650;2022-10-28T03:42:55;54.72;;;28.38;;
28766;SDS011;15921;52.034;20.650;2022-10-28T03:45:21;60.70;;;31.70;;
28766;SDS011;15921;52.034;20.650;2022-10-28T03:47:46;57.55;;;31.50;;
28766;SDS011;15921;52.034;20.650;2022-10-28T03:50:12;55.88;;;30.75;;
28766;SDS011;15921;52.034;20.650;2022-10-28T03:52:38;72.00;;;36.20;;
28766;SDS011;15921;52.034;20.650;2022-10-28T03:55:04;76.57;;;39.17;;
28766;SDS011;15921;52.034;20.650;2022-10-28T03:57:30;79.50;;;38.50;;
28766;SDS011;15921;52.034;20.650;2022-10-28T03:59:57;80.72;;;39.67;;
28766;SDS011;15921;52.034;20.650;2022-10-28T04:02:23;73.97;;;35.70;;
28766;SDS011;15921;52.034;20.650;2022-10-28T04:04:49;68.28;;;35.30;;
28766;SDS011;15921;52.034;20.650;2022-10-28T04:07:14;61.35;;;33.38;;
28766;SDS011;15921;52.034;20.650;2022-10-28T04:09:40;70.57;;;36.03;;
28766;SDS011;15921;52.034;20.650;2022-10-28T04:12:06;86.75;;;40.38;;
28766;SDS011;15921;52.034;20.650;2022-10-28T04:14:33;80.88;;;39.47;;
28766;SDS011;15921;52.034;20.650;2022-10-28T04:16:59;100.13;;;44.53;;
28766;SDS011;15921;52.034;20.650;2022-10-28T04:19:25;89.60;;;42.85;;
28766;SDS011;15921;52.034;20.650;2022-10-28T04:21:50;100.13;;;44.63;;
28766;SDS011;15921;52.034;20.650;2022-10-28T04:24:16;115.43;;;46.55;;
28766;SDS011;15921;52.034;20.650;2022-10-28T04:26:42;122.88;;;48.85;;
28766;SDS011;15921;52.034;20.650;2022-10-28T04:29:08;110.55;;;46.25;;
28766;SDS011;15921;52.034;20.650;2022-10-28T04:31:33;111.65;;;45.65;;
28766;SDS011;15921;52.034;20.650;2022-10-28T04:33:59;110.97;;;47.33;;
28766;SDS011;15921;52.034;20.650;2022-10-28T04:36:24;103.90;;;48.70;;
28766;SDS011;15921;52.034;20.650;2022-10-28T04:38:50;122.03;;;49.70;;
28766;SDS011;15921;52.034;20.650;2022-10-28T04:41:16;113.97;;;48.03;;
28766;SDS011;15921;52.034;20.650;2022-10-28T04:43:42;122.05;;;47.78;;
28766;SDS011;15921;52.034;20.650;2022-10-28T04:46:08;113.25;;;48.00;;
28766;SDS011;15921;52.034;20.650;2022-10-28T04:48:34;129.43;;;51.13;;
28766;SDS011;15921;52.034;20.650;2022-10-28T04:51:00;132.70;;;51.20;;
28766;SDS011;15921;52.034;20.650;2022-10-28T04:53:26;108.03;;;46.92;;
28766;SDS011;15921;52.034;20.650;2022-10-28T04:55:56;98.13;;;46.78;;
28766;SDS011;15921;52.034;20.650;2022-10-28T04:58:23;94.32;;;44.03;;
28766;SDS011;15921;52.034;20.650;2022-10-28T05:00:49;106.72;;;47.80;;
28766;SDS011;15921;52.034;20.650;2022-10-28T05:03:15;117.38;;;49.15;;
28766;SDS011;15921;52.034;20.650;2022-10-28T05:05:41;108.55;;;46.15;;
28766;SDS011;15921;52.034;20.650;2022-10-28T05:08:06;117.47;;;48.22;;
28766;SDS011;15921;52.034;20.650;2022-10-28T05:10:32;108.30;;;46.38;;
28766;SDS011;15921;52.034;20.650;2022-10-28T05:12:58;118.85;;;47.88;;
28766;SDS011;15921;52.034;20.650;2022-10-28T05:15:24;112.47;;;49.78;;
28766;SDS011;15921;52.034;20.650;2022-10-28T05:17:51;105.20;;;44.90;;
28766;SDS011;15921;52.034;20.650;2022-10-28T05:20:17;101.65;;;48.40;;
28766;SDS011;15921;52.034;20.650;2022-10-28T05:22:48;104.38;;;48.53;;
28766;SDS011;15921;52.034;20.650;2022-10-28T05:25:16;90.53;;;42.75;;
28766;SDS011;15921;52.034;20.650;2022-10-28T05:27:42;72.68;;;37.50;;
28766;SDS011;15921;52.034;20.650;2022-10-28T05:30:08;78.10;;;38.97;;
28766;SDS011;15921;52.034;20.650;2022-10-28T05:32:35;66.72;;;35.58;;
28766;SDS011;15921;52.034;20.650;2022-10-28T05:35:01;67.03;;;35.65;;
28766;SDS011;15921;52.034;20.650;2022-10-28T05:37:26;71.63;;;36.70;;
28766;SDS011;15921;52.034;20.650;2022-10-28T05:39:52;64.10;;;33.42;;
28766;SDS011;15921;52.034;20.650;2022-10-28T05:42:18;67.40;;;35.70;;
28766;SDS011;15921;52.034;20.650;2022-10-28T05:44:43;72.97;;;36.08;;
28766;SDS011;15921;52.034;20.650;2022-10-28T05:47:09;58.72;;;32.42;;
28766;SDS011;15921;52.034;20.650;2022-10-28T05:49:35;64.00;;;33.50;;
28766;SDS011;15921;52.034;20.650;2022-10-28T05:52:00;59.80;;;34.70;;
28766;SDS011;15921;52.034;20.650;2022-10-28T05:54:26;79.40;;;38.90;;
28766;SDS011;15921;52.034;20.650;2022-10-28T05:56:52;97.05;;;43.90;;
28766;SDS011;15921;52.034;20.650;2022-10-28T05:59:18;93.78;;;45.13;;
28766;SDS011;15921;52.034;20.650;2022-10-28T06:01:43;80.43;;;39.92;;
28766;SDS011;15921;52.034;20.650;2022-10-28T06:04:09;108.47;;;49.55;;
28766;SDS011;15921;52.034;20.650;2022-10-28T06:06:35;89.65;;;43.53;;
28766;SDS011;15921;52.034;20.650;2022-10-28T06:09:01;96.88;;;47.50;;
28766;SDS011;15921;52.034;20.650;2022-10-28T06:11:26;116.00;;;53.03;;
28766;SDS011;15921;52.034;20.650;2022-10-28T06:13:52;101.78;;;49.08;;
28766;SDS011;15921;52.034;20.650;2022-10-28T06:16:18;114.75;;;53.08;;
28766;SDS011;15921;52.034;20.650;2022-10-28T06:18:43;106.18;;;47.45;;
28766;SDS011;15921;52.034;20.650;2022-10-28T06:21:09;107.40;;;49.17;;
28766;SDS011;15921;52.034;20.650;2022-10-28T06:23:35;109.10;;;50.50;;
28766;SDS011;15921;52.034;20.650;2022-10-28T06:26:01;115.57;;;54.25;;
28766;SDS011;15921;52.034;20.650;2022-10-28T06:28:29;99.07;;;47.80;;
28766;SDS011;15921;52.034;20.650;2022-10-28T06:31:02;102.20;;;50.20;;
28766;SDS011;15921;52.034;20.650;2022-10-28T06:33:29;109.45;;;51.10;;
28766;SDS011;15921;52.034;20.650;2022-10-28T06:35:56;97.97;;;46.85;;
28766;SDS011;15921;52.034;20.650;2022-10-28T06:38:23;99.72;;;48.17;;
28766;SDS011;15921;52.034;20.650;2022-10-28T06:40:49;105.90;;;51.97;;
28766;SDS011;15921;52.034;20.650;2022-10-28T06:43:14;103.47;;;49.63;;
28766;SDS011;15921;52.034;20.650;2022-10-28T06:45:40;96.25;;;47.83;;
28766;SDS011;15921;52.034;20.650;2022-10-28T06:48:06;107.38;;;52.50;;
28766;SDS011;15921;52.034;20.650;2022-10-28T06:50:32;104.70;;;50.60;;
28766;SDS011;15921;52.034;20.650;2022-10-28T06:52:59;109.95;;;52.90;;
28766;SDS011;15921;52.034;20.650;2022-10-28T06:55:25;89.97;;;46.67;;
28766;SDS011;15921;52.034;20.650;2022-10-28T06:57:52;103.53;;;49.63;;
28766;SDS011;15921;52.034;20.650;2022-10-28T07:00:18;101.65;;;49.75;;
28766;SDS011;15921;52.034;20.650;2022-10-28T07:02:43;102.80;;;49.47;;
28766;SDS011;15921;52.034;20.650;2022-10-28T07:05:14;91.45;;;48.20;;
28766;SDS011;15921;52.034;20.650;2022-10-28T07:07:39;82.10;;;43.85;;
28766;SDS011;15921;52.034;20.650;2022-10-28T07:10:05;96.40;;;46.13;;
28766;SDS011;15921;52.034;20.650;2022-10-28T07:12:31;97.18;;;48.33;;
28766;SDS011;15921;52.034;20.650;2022-10-28T07:14:57;91.28;;;44.20;;
28766;SDS011;15921;52.034;20.650;2022-10-28T07:17:22;96.97;;;49.17;;
28766;SDS011;15921;52.034;20.650;2022-10-28T07:19:48;98.57;;;48.60;;
28766;SDS011;15921;52.034;20.650;2022-10-28T07:22:14;96.07;;;47.53;;
28766;SDS011;15921;52.034;20.650;2022-10-28T07:24:40;106.25;;;51.05;;
28766;SDS011;15921;52.034;20.650;2022-10-28T07:27:06;101.35;;;48.22;;
28766;SDS011;15921;52.034;20.650;2022-10-28T07:29:32;87.32;;;46.92;;
28766;SDS011;15921;52.034;20.650;2022-10-28T07:31:58;93.65;;;46.40;;
28766;SDS011;15921;52.034;20.650;2022-10-28T07:34:24;107.13;;;49.10;;
28766;SDS011;15921;52.034;20.650;2022-10-28T07:36:50;89.05;;;45.85;;
28766;SDS011;15921;52.034;20.650;2022-10-28T07:39:16;88.00;;;45.80;;
28766;SDS011;15921;52.034;20.650;2022-10-28T07:41:42;91.38;;;44.83;;
28766;SDS011;15921;52.034;20.650;2022-10-28T07:44:08;88.63;;;45.17;;
28766;SDS011;15921;52.034;20.650;2022-10-28T07:46:34;79.07;;;42.65;;
28766;SDS011;15921;52.034;20.650;2022-10-28T07:48:59;85.95;;;42.17;;
28766;SDS011;15921;52.034;20.650;2022-10-28T07:51:26;76.38;;;42.35;;
28766;SDS011;15921;52.034;20.650;2022-10-28T07:53:52;68.07;;;40.17;;
28766;SDS011;15921;52.034;20.650;2022-10-28T07:56:19;79.13;;;40.97;;
28766;SDS011;15921;52.034;20.650;2022-10-28T07:58:44;66.20;;;37.72;;
28766;SDS011;15921;52.034;20.650;2022-10-28T08:01:11;66.57;;;37.17;;
28766;SDS011;15921;52.034;20.650;2022-10-28T08:03:39;69.95;;;37.70;;
28766;SDS011;15921;52.034;20.650;2022-10-28T08:06:06;70.82;;;37.15;;
28766;SDS011;15921;52.034;20.650;2022-10-28T08:08:34;68.45;;;36.78;;
28766;SDS011;15921;52.034;20.650;2022-10-28T08:11:13;69.25;;;36.25;;
28766;SDS011;15921;52.034;20.650;2022-10-28T08:13:43;66.90;;;35.03;;
28766;SDS011;15921;52.034;20.650;2022-10-28T08:16:10;66.28;;;35.42;;
28766;SDS011;15921;52.034;20.650;2022-10-28T08:18:36;55.63;;;33.67;;
28766;SDS011;15921;52.034;20.650;2022-10-28T08:21:03;57.15;;;33.95;;
28766;SDS011;15921;52.034;20.650;2022-10-28T08:23:31;53.33;;;31.35;;
28766;SDS011;15921;52.034;20.650;2022-10-28T08:25:57;55.15;;;31.60;;
28766;SDS011;15921;52.034;20.650;2022-10-28T08:28:23;54.83;;;31.48;;
28766;SDS011;15921;52.034;20.650;2022-10-28T08:30:49;55.05;;;30.80;;
28766;SDS011;15921;52.034;20.650;2022-10-28T08:33:15;49.80;;;30.75;;
28766;SDS011;15921;52.034;20.650;2022-10-28T08:35:42;54.60;;;30.92;;
28766;SDS011;15921;52.034;20.650;2022-10-28T08:38:13;49.70;;;28.92;;
28766;SDS011;15921;52.034;20.650;2022-10-28T08:43:37;51.58;;;28.35;;
28766;SDS011;15921;52.034;20.650;2022-10-28T08:48:44;48.50;;;29.60;;
28766;SDS011;15921;52.034;20.650;2022-10-28T08:51:11;58.13;;;28.63;;
28766;SDS011;15921;52.034;20.650;2022-10-28T08:54:05;49.00;;;28.08;;
28766;SDS011;15921;52.034;20.650;2022-10-28T08:56:36;47.35;;;26.83;;
28766;SDS011;15921;52.034;20.650;2022-10-28T08:59:12;43.63;;;25.42;;
28766;SDS011;15921;52.034;20.650;2022-10-28T09:02:20;46.55;;;28.08;;
28766;SDS011;15921;52.034;20.650;2022-10-28T09:04:48;46.67;;;26.15;;
28766;SDS011;15921;52.034;20.650;2022-10-28T09:07:20;48.22;;;25.25;;
28766;SDS011;15921;52.034;20.650;2022-10-28T09:09:48;40.15;;;25.15;;
28766;SDS011;15921;52.034;20.650;2022-10-28T09:17:53;39.35;;;24.40;;
28766;SDS011;15921;52.034;20.650;2022-10-28T09:23:22;43.40;;;24.88;;
28766;SDS011;15921;52.034;20.650;2022-10-28T09:25:53;49.05;;;24.95;;
28766;SDS011;15921;52.034;20.650;2022-10-28T09:28:41;42.92;;;24.35;;
28766;SDS011;15921;52.034;20.650;2022-10-28T09:31:17;36.78;;;22.27;;
28766;SDS011;15921;52.034;20.650;2022-10-28T09:34:09;33.58;;;21.67;;
28766;SDS011;15921;52.034;20.650;2022-10-28T09:36:47;40.45;;;22.05;;
28766;SDS011;15921;52.034;20.650;2022-10-28T09:39:23;33.95;;;21.00;;
28766;SDS011;15921;52.034;20.650;2022-10-28T09:41:57;27.77;;;18.35;;
28766;SDS011;15921;52.034;20.650;2022-10-28T09:47:13;29.98;;;17.70;;
28766;SDS011;15921;52.034;20.650;2022-10-28T09:49:45;35.15;;;19.50;;
28766;SDS011;15921;52.034;20.650;2022-10-28T09:52:15;29.27;;;17.38;;
28766;SDS011;15921;52.034;20.650;2022-10-28T09:55:07;31.83;;;17.00;;
28766;SDS011;15921;52.034;20.650;2022-10-28T09:57:43;25.00;;;16.08;;
28766;SDS011;15921;52.034;20.650;2022-10-28T10:00:11;26.85;;;15.65;;
28766;SDS011;15921;52.034;20.650;2022-10-28T10:02:39;28.55;;;15.73;;
28766;SDS011;15921;52.034;20.650;2022-10-28T10:05:15;25.55;;;15.40;;
28766;SDS011;15921;52.034;20.650;2022-10-28T10:08:16;27.48;;;15.65;;
28766;SDS011;15921;52.034;20.650;2022-10-28T10:13:21;29.52;;;17.05;;
28766;SDS011;15921;52.034;20.650;2022-10-28T10:16:05;22.50;;;15.02;;
28766;SDS011;15921;52.034;20.650;2022-10-28T10:18:40;26.05;;;14.63;;
28766;SDS011;15921;52.034;20.650;2022-10-28T10:21:12;27.77;;;15.77;;
28766;SDS011;15921;52.034;20.650;2022-10-28T10:23:40;25.42;;;15.73;;
28766;SDS011;15921;52.034;20.650;2022-10-28T10:26:10;25.23;;;14.45;;
28766;SDS011;15921;52.034;20.650;2022-10-28T10:28:39;24.53;;;15.17;;
28766;SDS011;15921;52.034;20.650;2022-10-28T10:31:15;31.13;;;13.95;;
28766;SDS011;15921;52.034;20.650;2022-10-28T10:33:46;28.52;;;14.98;;
28766;SDS011;15921;52.034;20.650;2022-10-28T10:36:15;23.38;;;13.73;;
28766;SDS011;15921;52.034;20.650;2022-10-28T10:38:45;21.42;;;13.95;;
28766;SDS011;15921;52.034;20.650;2022-10-28T10:49:26;25.42;;;14.13;;
28766;SDS011;15921;52.034;20.650;2022-10-28T10:51:57;23.25;;;13.55;;
28766;SDS011;15921;52.034;20.650;2022-10-28T10:54:40;20.17;;;13.32;;
28766;SDS011;15921;52.034;20.650;2022-10-28T10:57:21;26.40;;;13.95;;
28766;SDS011;15921;52.034;20.650;2022-10-28T10:59:49;24.20;;;12.82;;
28766;SDS011;15921;52.034;20.650;2022-10-28T11:02:26;24.63;;;13.00;;
28766;SDS011;15921;52.034;20.650;2022-10-28T11:04:59;25.90;;;12.60;;
28766;SDS011;15921;52.034;20.650;2022-10-28T11:09:56;18.80;;;12.15;;
28766;SDS011;15921;52.034;20.650;2022-10-28T11:12:31;25.40;;;12.65;;
28766;SDS011;15921;52.034;20.650;2022-10-28T11:15:03;22.45;;;11.77;;
28766;SDS011;15921;52.034;20.650;2022-10-28T11:17:52;19.65;;;10.88;;
28766;SDS011;15921;52.034;20.650;2022-10-28T11:20:24;28.55;;;11.82;;
28766;SDS011;15921;52.034;20.650;2022-10-28T11:25:34;16.85;;;8.77;;
28766;SDS011;15921;52.034;20.650;2022-10-28T11:36:39;22.65;;;9.80;;
28766;SDS011;15921;52.034;20.650;2022-10-28T11:39:19;12.27;;;8.43;;
28766;SDS011;15921;52.034;20.650;2022-10-28T11:44:43;15.57;;;9.10;;
28766;SDS011;15921;52.034;20.650;2022-10-28T11:55:44;20.63;;;9.30;;
28766;SDS011;15921;52.034;20.650;2022-10-28T12:09:28;21.92;;;8.15;;
28766;SDS011;15921;52.034;20.650;2022-10-28T12:12:12;16.33;;;8.25;;
28766;SDS011;15921;52.034;20.650;2022-10-28T12:20:19;14.68;;;8.15;;
28766;SDS011;15921;52.034;20.650;2022-10-28T12:22:54;16.45;;;8.75;;
28766;SDS011;15921;52.034;20.650;2022-10-28T12:25:25;13.05;;;8.63;;
28766;SDS011;15921;52.034;20.650;2022-10-28T12:27:56;17.88;;;8.48;;
28766;SDS011;15921;52.034;20.650;2022-10-28T12:30:26;17.75;;;7.68;;
28766;SDS011;15921;52.034;20.650;2022-10-28T12:33:05;15.43;;;8.40;;
28766;SDS011;15921;52.034;20.650;2022-10-28T12:41:26;13.93;;;8.07;;
28766;SDS011;15921;52.034;20.650;2022-10-28T12:44:08;12.30;;;7.80;;
28766;SDS011;15921;52.034;20.650;2022-10-28T12:55:13;15.82;;;8.25;;
28766;SDS011;15921;52.034;20.650;2022-10-28T13:00:46;19.35;;;9.18;;
28766;SDS011;15921;52.034;20.650;2022-10-28T13:03:15;12.57;;;7.78;;
28766;SDS011;15921;52.034;20.650;2022-10-28T13:13:46;20.10;;;9.53;;
28766;SDS011;15921;52.034;20.650;2022-10-28T13:27:40;16.50;;;8.52;;
28766;SDS011;15921;52.034;20.650;2022-10-28T13:30:13;14.50;;;8.18;;
28766;SDS011;15921;52.034;20.650;2022-10-28T13:32:42;13.70;;;8.35;;
28766;SDS011;15921;52.034;20.650;2022-10-28T13:35:12;16.15;;;9.20;;
28766;SDS011;15921;52.034;20.650;2022-10-28T13:37:45;18.75;;;8.73;;
28766;SDS011;15921;52.034;20.650;2022-10-28T13:40:20;17.23;;;9.65;;
28766;SDS011;15921;52.034;20.650;2022-10-28T13:42:49;18.17;;;9.63;;
28766;SDS011;15921;52.034;20.650;2022-10-28T13:53:40;23.73;;;10.25;;
28766;SDS011;15921;52.034;20.650;2022-10-28T14:01:35;14.85;;;9.20;;
28766;SDS011;15921;52.034;20.650;2022-10-28T14:04:32;22.08;;;9.70;;
28766;SDS011;15921;52.034;20.650;2022-10-28T14:09:37;31.50;;;17.00;;
28766;SDS011;15921;52.034;20.650;2022-10-28T14:14:45;16.83;;;10.93;;
28766;SDS011;15921;52.034;20.650;2022-10-28T14:17:20;25.33;;;13.68;;
28766;SDS011;15921;52.034;20.650;2022-10-28T14:19:50;19.55;;;9.93;;
28766;SDS011;15921;52.034;20.650;2022-10-28T14:22:28;24.88;;;13.20;;
28766;SDS011;15921;52.034;20.650;2022-10-28T14:24:59;24.07;;;10.23;;
28766;SDS011;15921;52.034;20.650;2022-10-28T14:27:44;20.42;;;11.45;;
28766;SDS011;15921;52.034;20.650;2022-10-28T14:30:11;24.52;;;9.55;;
28766;SDS011;15921;52.034;20.650;2022-10-28T14:35:24;18.77;;;9.73;;
28766;SDS011;15921;52.034;20.650;2022-10-28T14:41:05;16.52;;;8.82;;
28766;SDS011;15921;52.034;20.650;2022-10-28T14:43:45;20.05;;;9.20;;
28766;SDS011;15921;52.034;20.650;2022-10-28T14:49:32;14.18;;;9.05;;
28766;SDS011;15921;52.034;20.650;2022-10-28T14:52:09;15.98;;;10.27;;
28766;SDS011;15921;52.034;20.650;2022-10-28T14:57:28;18.25;;;11.40;;
28766;SDS011;15921;52.034;20.650;2022-10-28T14:59:55;22.20;;;11.68;;
28766;SDS011;15921;52.034;20.650;2022-10-28T15:07:36;35.05;;;17.70;;
28766;SDS011;15921;52.034;20.650;2022-10-28T15:10:20;31.00;;;16.55;;
28766;SDS011;15921;52.034;20.650;2022-10-28T15:12:52;31.95;;;15.60;;
28766;SDS011;15921;52.034;20.650;2022-10-28T15:15:36;26.67;;;14.77;;
28766;SDS011;15921;52.034;20.650;2022-10-28T15:18:16;28.08;;;15.00;;
28766;SDS011;15921;52.034;20.650;2022-10-28T15:20:47;28.45;;;13.43;;
28766;SDS011;15921;52.034;20.650;2022-10-28T15:23:21;23.77;;;13.73;;
28766;SDS011;15921;52.034;20.650;2022-10-28T15:28:31;26.98;;;13.23;;
28766;SDS011;15921;52.034;20.650;2022-10-28T15:30:57;25.58;;;13.30;;
28766;SDS011;15921;52.034;20.650;2022-10-28T15:33:30;28.60;;;14.75;;
28766;SDS011;15921;52.034;20.650;2022-10-28T15:38:48;23.67;;;13.68;;
28766;SDS011;15921;52.034;20.650;2022-10-28T15:43:59;26.05;;;13.90;;
28766;SDS011;15921;52.034;20.650;2022-10-28T15:46:28;33.50;;;15.13;;
28766;SDS011;15921;52.034;20.650;2022-10-28T15:48:57;25.13;;;14.13;;
28766;SDS011;15921;52.034;20.650;2022-10-28T15:51:24;26.05;;;13.90;;
28766;SDS011;15921;52.034;20.650;2022-10-28T15:53:50;29.27;;;14.23;;
28766;SDS011;15921;52.034;20.650;2022-10-28T16:03:54;22.67;;;14.02;;
28766;SDS011;15921;52.034;20.650;2022-10-28T16:11:23;22.92;;;13.77;;
28766;SDS011;15921;52.034;20.650;2022-10-28T16:13:50;26.00;;;14.23;;
28766;SDS011;15921;52.034;20.650;2022-10-28T16:16:25;26.20;;;14.70;;
28766;SDS011;15921;52.034;20.650;2022-10-28T16:18:57;23.05;;;14.07;;
28766;SDS011;15921;52.034;20.650;2022-10-28T16:21:47;28.23;;;14.07;;
28766;SDS011;15921;52.034;20.650;2022-10-28T16:24:13;20.67;;;13.65;;
28766;SDS011;15921;52.034;20.650;2022-10-28T16:26:39;25.48;;;14.55;;
28766;SDS011;15921;52.034;20.650;2022-10-28T16:29:04;21.98;;;12.95;;
28766;SDS011;15921;52.034;20.650;2022-10-28T16:31:30;22.33;;;12.50;;
28766;SDS011;15921;52.034;20.650;2022-10-28T16:33:56;24.80;;;14.15;;
28766;SDS011;15921;52.034;20.650;2022-10-28T16:36:23;25.92;;;14.68;;
28766;SDS011;15921;52.034;20.650;2022-10-28T16:38:52;25.70;;;14.18;;
28766;SDS011;15921;52.034;20.650;2022-10-28T16:41:18;25.08;;;14.07;;
28766;SDS011;15921;52.034;20.650;2022-10-28T16:43:44;26.63;;;15.25;;
28766;SDS011;15921;52.034;20.650;2022-10-28T16:46:11;24.50;;;12.93;;
28766;SDS011;15921;52.034;20.650;2022-10-28T16:48:38;24.77;;;12.75;;
28766;SDS011;15921;52.034;20.650;2022-10-28T16:51:04;26.40;;;13.70;;
28766;SDS011;15921;52.034;20.650;2022-10-28T16:53:41;23.42;;;12.80;;
28766;SDS011;15921;52.034;20.650;2022-10-28T16:56:12;22.05;;;11.50;;
28766;SDS011;15921;52.034;20.650;2022-10-28T16:58:38;27.30;;;13.05;;
28766;SDS011;15921;52.034;20.650;2022-10-28T17:01:06;20.65;;;11.68;;
28766;SDS011;15921;52.034;20.650;2022-10-28T17:03:33;20.75;;;12.23;;
28766;SDS011;15921;52.034;20.650;2022-10-28T17:05:59;19.75;;;11.60;;
28766;SDS011;15921;52.034;20.650;2022-10-28T17:08:25;19.90;;;11.00;;
28766;SDS011;15921;52.034;20.650;2022-10-28T17:10:51;18.35;;;10.38;;
28766;SDS011;15921;52.034;20.650;2022-10-28T17:13:17;22.33;;;11.32;;
28766;SDS011;15921;52.034;20.650;2022-10-28T17:15:42;23.88;;;11.82;;
28766;SDS011;15921;52.034;20.650;2022-10-28T17:18:10;19.98;;;11.30;;
28766;SDS011;15921;52.034;20.650;2022-10-28T17:20:36;20.13;;;11.73;;
28766;SDS011;15921;52.034;20.650;2022-10-28T17:23:05;26.10;;;12.40;;
28766;SDS011;15921;52.034;20.650;2022-10-28T17:25:31;20.70;;;12.05;;
28766;SDS011;15921;52.034;20.650;2022-10-28T17:27:57;25.33;;;12.27;;
28766;SDS011;15921;52.034;20.650;2022-10-28T17:30:23;20.27;;;11.23;;
28766;SDS011;15921;52.034;20.650;2022-10-28T17:32:49;20.67;;;10.50;;
28766;SDS011;15921;52.034;20.650;2022-10-28T17:35:17;18.48;;;10.35;;
28766;SDS011;15921;52.034;20.650;2022-10-28T17:37:44;19.20;;;10.60;;
28766;SDS011;15921;52.034;20.650;2022-10-28T17:40:10;18.63;;;10.63;;
28766;SDS011;15921;52.034;20.650;2022-10-28T17:42:36;22.80;;;10.90;;